createdAt,value
2022-08-28T00:00:28.503Z,100.00
2022-08-28T00:02:59.497Z,100.00
2022-08-28T00:05:37.006Z,100.00
2022-08-28T00:08:14.647Z,100.00
2022-08-28T00:10:48.776Z,100.00
2022-08-28T00:13:27.618Z,100.00
2022-08-28T00:15:59.027Z,100.00
2022-08-28T00:18:32.618Z,100.00
2022-08-28T00:21:00.701Z,100.00
2022-08-28T00:23:42.712Z,100.00
2022-08-28T00:26:36.606Z,100.00
2022-08-28T00:31:51.328Z,100.00
2022-08-28T00:39:46.643Z,100.00
2022-08-28T00:42:14.360Z,100.00
2022-08-28T00:44:53.563Z,100.00
2022-08-28T00:47:27.670Z,100.00
2022-08-28T00:49:58.870Z,100.00
2022-08-28T00:52:29.355Z,100.00
2022-08-28T00:55:12.163Z,100.00
2022-08-28T00:57:55.184Z,100.00
2022-08-28T01:00:41.379Z,100.00
2022-08-28T01:03:12.951Z,100.00
2022-08-28T01:05:49.437Z,100.00
2022-08-28T01:08:25.253Z,100.00
2022-08-28T01:11:06.345Z,100.00
2022-08-28T01:13:34.423Z,100.00
2022-08-28T01:16:13.463Z,100.00
2022-08-28T01:18:47.006Z,100.00
2022-08-28T01:21:35.450Z,100.00
2022-08-28T01:24:10.726Z,100.00
2022-08-28T01:26:44.295Z,100.00
2022-08-28T01:29:20.597Z,100.00
2022-08-28T01:31:49.047Z,100.00
2022-08-28T01:34:16.118Z,100.00
2022-08-28T01:36:53.742Z,100.00
2022-08-28T01:39:26.723Z,100.00
2022-08-28T01:41:55.711Z,100.00
2022-08-28T01:44:27.580Z,100.00
2022-08-28T01:46:59.308Z,100.00
2022-08-28T01:49:36.536Z,100.00
2022-08-28T01:52:04.880Z,100.00
2022-08-28T01:54:37.127Z,100.00
2022-08-28T01:57:06.331Z,100.00
2022-08-28T01:59:33.484Z,100.00
2022-08-28T02:02:06.215Z,100.00
2022-08-28T02:04:36.732Z,100.00
2022-08-28T02:07:07.148Z,100.00
2022-08-28T02:09:34.283Z,100.00
2022-08-28T02:12:01.616Z,100.00
2022-08-28T02:14:34.829Z,100.00
2022-08-28T02:17:05.067Z,100.00
2022-08-28T02:19:32.356Z,100.00
2022-08-28T02:22:04.155Z,100.00
2022-08-28T02:24:43.250Z,100.00
2022-08-28T02:27:13.427Z,100.00
2022-08-28T02:29:43.990Z,100.00
2022-08-28T02:32:17.080Z,100.00
2022-08-28T02:34:49.718Z,100.00
2022-08-28T02:37:29.277Z,100.00
2022-08-28T02:40:05.631Z,100.00
2022-08-28T02:42:33.947Z,100.00
2022-08-28T02:45:03.595Z,100.00
2022-08-28T02:47:36.675Z,100.00
2022-08-28T02:50:13.011Z,100.00
2022-08-28T02:52:52.265Z,100.00
2022-08-28T02:55:22.361Z,100.00
2022-08-28T02:57:54.775Z,100.00
2022-08-28T03:00:27.819Z,100.00
2022-08-28T03:02:57.933Z,100.00
2022-08-28T03:05:34.563Z,100.00
2022-08-28T03:08:04.385Z,100.00
2022-08-28T03:10:35.397Z,100.00
2022-08-28T03:13:11.442Z,100.00
2022-08-28T03:15:53.676Z,100.00
2022-08-28T03:18:28.716Z,100.00
2022-08-28T03:20:56.116Z,100.00
2022-08-28T03:23:28.912Z,100.00
2022-08-28T03:26:03.450Z,100.00
2022-08-28T03:28:34.202Z,100.00
2022-08-28T03:31:01.645Z,100.00
2022-08-28T03:33:31.865Z,100.00
2022-08-28T03:36:04.628Z,100.00
2022-08-28T03:38:35.341Z,100.00
2022-08-28T03:41:05.476Z,100.00
2022-08-28T03:43:35.961Z,100.00
2022-08-28T03:46:05.456Z,100.00
2022-08-28T03:48:46.787Z,100.00
2022-08-28T03:51:22.464Z,100.00
2022-08-28T03:54:01.828Z,100.00
2022-08-28T03:56:30.437Z,100.00
2022-08-28T03:59:04.903Z,100.00
2022-08-28T04:01:36.080Z,100.00
2022-08-28T04:04:17.793Z,100.00
2022-08-28T04:06:45.619Z,100.00
2022-08-28T04:09:21.784Z,100.00
2022-08-28T04:11:52.684Z,100.00
2022-08-28T04:14:25.630Z,100.00
2022-08-28T04:17:01.642Z,100.00
2022-08-28T04:19:40.787Z,100.00
2022-08-28T04:22:11.522Z,100.00
2022-08-28T04:24:43.178Z,100.00
2022-08-28T04:27:10.448Z,100.00
2022-08-28T04:29:38.199Z,100.00
2022-08-28T04:32:08.347Z,100.00
2022-08-28T04:34:40.700Z,100.00
2022-08-28T04:37:13.292Z,100.00
2022-08-28T04:39:49.724Z,100.00
2022-08-28T04:42:16.885Z,100.00
2022-08-28T04:44:46.957Z,100.00
2022-08-28T04:47:16.541Z,100.00
2022-08-28T04:49:51.971Z,100.00
2022-08-28T04:52:19.233Z,100.00
2022-08-28T04:54:46.453Z,100.00
2022-08-28T04:57:22.021Z,100.00
2022-08-28T04:59:52.326Z,100.00
2022-08-28T05:02:19.529Z,100.00
2022-08-28T05:04:47.503Z,100.00
2022-08-28T05:07:17.390Z,100.00
2022-08-28T05:09:49.877Z,100.00
2022-08-28T05:12:19.924Z,100.00
2022-08-28T05:14:52.799Z,100.00
2022-08-28T05:17:22.663Z,100.00
2022-08-28T05:19:56.714Z,100.00
2022-08-28T05:22:23.931Z,100.00
2022-08-28T05:24:51.317Z,100.00
2022-08-28T05:27:20.363Z,100.00
2022-08-28T05:30:02.155Z,100.00
2022-08-28T05:32:32.360Z,100.00
2022-08-28T05:35:00.548Z,100.00
2022-08-28T05:37:27.864Z,100.00
2022-08-28T05:40:03.937Z,100.00
2022-08-28T05:42:34.868Z,100.00
2022-08-28T05:45:14.389Z,100.00
2022-08-28T05:47:47.255Z,100.00
2022-08-28T05:50:16.403Z,100.00
2022-08-28T05:52:53.444Z,100.00
2022-08-28T05:55:25.992Z,99.06
2022-08-28T05:57:53.133Z,98.31
2022-08-28T06:00:31.502Z,97.40
2022-08-28T06:03:02.691Z,96.24
2022-08-28T06:05:36.461Z,95.66
2022-08-28T06:08:12.504Z,93.88
2022-08-28T06:10:51.021Z,89.50
2022-08-28T06:13:24.703Z,87.91
2022-08-28T06:15:51.847Z,86.78
2022-08-28T06:18:19.183Z,87.38
2022-08-28T06:20:53.214Z,85.33
2022-08-28T06:23:27.919Z,84.11
2022-08-28T06:26:11.107Z,81.53
2022-08-28T06:28:40.322Z,82.27
2022-08-28T06:31:24.646Z,79.62
2022-08-28T06:34:04.191Z,72.72
2022-08-28T06:36:37.314Z,72.25
2022-08-28T06:39:06.053Z,73.80
2022-08-28T06:41:41.345Z,74.63
2022-08-28T06:44:13.982Z,73.34
2022-08-28T06:46:41.967Z,73.82
2022-08-28T06:49:15.326Z,69.92
2022-08-28T06:51:45.164Z,69.27
2022-08-28T06:54:22.189Z,67.77
2022-08-28T06:57:02.243Z,67.00
2022-08-28T06:59:32.384Z,67.61
2022-08-28T07:02:03.125Z,65.75
2022-08-28T07:04:32.799Z,65.67
2022-08-28T07:07:16.120Z,65.17
2022-08-28T07:10:01.534Z,65.61
2022-08-28T07:12:31.858Z,65.78
2022-08-28T07:15:05.134Z,65.78
2022-08-28T07:17:36.808Z,65.32
2022-08-28T07:20:07.539Z,65.42
2022-08-28T07:22:43.750Z,67.16
2022-08-28T07:25:13.970Z,66.50
2022-08-28T07:27:46.793Z,66.04
2022-08-28T07:30:19.649Z,63.79
2022-08-28T07:32:57.232Z,62.04
2022-08-28T07:35:31.915Z,61.44
2022-08-28T07:38:04.133Z,61.65
2022-08-28T07:40:37.441Z,58.78
2022-08-28T07:43:23.968Z,59.32
2022-08-28T07:46:01.054Z,60.31
2022-08-28T07:48:28.402Z,59.08
2022-08-28T07:51:00.880Z,60.33
2022-08-28T07:53:36.481Z,61.69
2022-08-28T07:56:05.172Z,62.15
2022-08-28T07:58:36.655Z,60.64
2022-08-28T08:01:03.900Z,60.62
2022-08-28T08:03:42.655Z,57.22
2022-08-28T08:06:14.581Z,60.57
2022-08-28T08:08:41.730Z,60.63
2022-08-28T08:11:18.620Z,58.49
2022-08-28T08:13:48.205Z,61.58
2022-08-28T08:16:23.755Z,60.28
2022-08-28T08:18:52.560Z,57.12
2022-08-28T08:21:30.060Z,55.23
2022-08-28T08:24:02.786Z,54.95
2022-08-28T08:26:32.650Z,51.29
2022-08-28T08:29:03.203Z,57.06
2022-08-28T08:31:33.902Z,52.61
2022-08-28T08:34:12.210Z,54.19
2022-08-28T08:36:39.679Z,53.67
2022-08-28T08:39:09.695Z,56.03
2022-08-28T08:41:49.209Z,55.19
2022-08-28T08:44:22.000Z,53.31
2022-08-28T08:47:14.630Z,55.67
2022-08-28T08:49:53.726Z,56.49
2022-08-28T08:52:35.116Z,57.11
2022-08-28T08:55:17.537Z,59.01
2022-08-28T08:57:49.339Z,59.61
2022-08-28T09:00:22.275Z,60.65
2022-08-28T09:03:04.740Z,59.49
2022-08-28T09:06:02.211Z,61.29
2022-08-28T09:08:50.144Z,62.81
2022-08-28T09:11:57.217Z,61.61
2022-08-28T09:15:00.859Z,58.69
2022-08-28T09:17:51.153Z,58.08
2022-08-28T09:20:33.255Z,57.00
2022-08-28T09:23:02.176Z,56.67
2022-08-28T09:25:54.957Z,56.94
2022-08-28T09:28:31.088Z,57.31
2022-08-28T09:31:08.252Z,56.10
2022-08-28T09:33:54.029Z,56.78
2022-08-28T09:36:26.743Z,57.26
2022-08-28T09:39:08.623Z,58.34
2022-08-28T09:42:26.374Z,57.51
2022-08-28T09:44:59.782Z,56.03
2022-08-28T09:47:48.779Z,58.91
2022-08-28T09:50:38.930Z,56.87
2022-08-28T09:53:11.892Z,56.95
2022-08-28T09:55:57.711Z,54.78
2022-08-28T09:58:36.053Z,53.25
2022-08-28T10:01:24.521Z,54.98
2022-08-28T10:03:56.836Z,54.21
2022-08-28T10:06:37.809Z,53.70
2022-08-28T10:09:25.464Z,53.06
2022-08-28T10:12:14.495Z,52.73
2022-08-28T10:15:07.680Z,51.75
2022-08-28T10:18:09.971Z,51.87
2022-08-28T10:21:09.797Z,49.53
2022-08-28T10:24:14.307Z,49.64
2022-08-28T10:27:15.971Z,49.97
2022-08-28T10:30:13.331Z,48.58
2022-08-28T10:33:20.561Z,46.51
2022-08-28T10:36:09.657Z,45.95
2022-08-28T10:39:14.893Z,47.58
2022-08-28T10:42:02.242Z,46.31
2022-08-28T10:45:04.769Z,46.64
2022-08-28T10:47:38.496Z,45.58
2022-08-28T10:50:21.732Z,45.24
2022-08-28T10:53:01.072Z,44.44
2022-08-28T10:56:03.219Z,45.97
2022-08-28T10:58:47.294Z,44.24
2022-08-28T11:01:32.061Z,44.87
2022-08-28T11:04:08.240Z,45.05
2022-08-28T11:06:58.262Z,43.52
2022-08-28T11:09:47.417Z,45.19
2022-08-28T11:12:22.227Z,46.67
2022-08-28T11:15:06.531Z,47.04
2022-08-28T11:17:56.859Z,43.04
2022-08-28T11:20:30.811Z,43.84
2022-08-28T11:23:15.786Z,46.06
2022-08-28T11:26:09.622Z,43.00
2022-08-28T11:29:01.209Z,43.49
2022-08-28T11:31:37.337Z,40.33
2022-08-28T11:34:13.297Z,41.92
2022-08-28T11:37:20.185Z,41.08
2022-08-28T11:39:55.168Z,41.17
2022-08-28T11:46:05.568Z,41.29
2022-08-28T11:49:02.924Z,42.56
2022-08-28T11:52:19.851Z,44.52
2022-08-28T11:55:24.932Z,44.33
2022-08-28T12:01:01.994Z,43.47
2022-08-28T12:04:08.440Z,42.98
2022-08-28T12:07:04.857Z,42.37
2022-08-28T12:09:54.255Z,42.79
2022-08-28T12:12:24.211Z,42.13
2022-08-28T12:15:07.981Z,42.36
2022-08-28T12:17:47.864Z,42.42
2022-08-28T12:20:45.449Z,41.33
2022-08-28T12:26:57.036Z,40.33
2022-08-28T12:29:37.166Z,40.58
2022-08-28T12:32:29.000Z,42.03
2022-08-28T12:35:25.317Z,41.64
2022-08-28T12:37:58.057Z,46.19
2022-08-28T12:40:42.069Z,46.09
2022-08-28T12:43:25.562Z,46.07
2022-08-28T12:46:40.737Z,47.62
2022-08-28T12:49:39.532Z,46.64
2022-08-28T12:52:28.335Z,46.88
2022-08-28T12:55:07.068Z,47.54
2022-08-28T12:58:03.086Z,49.56
2022-08-28T13:01:06.301Z,46.09
2022-08-28T13:04:14.512Z,47.17
2022-08-28T13:06:47.119Z,46.75
2022-08-28T13:09:55.911Z,47.03
2022-08-28T13:12:54.960Z,46.41
2022-08-28T13:16:04.986Z,43.18
2022-08-28T13:18:59.532Z,42.75
2022-08-28T13:21:37.047Z,42.64
2022-08-28T13:24:35.612Z,40.81
2022-08-28T13:27:39.913Z,39.90
2022-08-28T13:30:29.613Z,40.54
2022-08-28T13:33:02.471Z,42.28
2022-08-28T13:35:37.942Z,41.19
2022-08-28T13:38:13.360Z,42.20
2022-08-28T13:41:00.510Z,41.99
2022-08-28T13:43:41.997Z,43.57
2022-08-28T13:46:15.100Z,44.19
2022-08-28T13:48:53.644Z,43.83
2022-08-28T13:51:29.463Z,45.04
2022-08-28T13:53:59.041Z,44.47
2022-08-28T13:56:33.753Z,45.09
2022-08-28T13:59:07.003Z,45.72
2022-08-28T14:02:01.567Z,44.50
2022-08-28T14:04:34.481Z,45.49
2022-08-28T14:07:01.480Z,46.13
2022-08-28T14:09:38.163Z,44.39
2022-08-28T14:12:33.058Z,44.07
2022-08-28T14:15:01.801Z,43.58
2022-08-28T14:17:43.588Z,45.19
2022-08-28T14:20:11.879Z,44.85
2022-08-28T14:22:46.054Z,44.08
2022-08-28T14:25:16.515Z,44.51
2022-08-28T14:28:06.962Z,45.46
2022-08-28T14:30:45.554Z,46.10
2022-08-28T14:33:20.745Z,44.90
2022-08-28T14:35:49.099Z,46.30
2022-08-28T14:38:17.000Z,45.81
2022-08-28T14:40:45.484Z,45.21
2022-08-28T14:43:20.029Z,46.67
2022-08-28T14:45:53.168Z,45.91
2022-08-28T14:48:24.166Z,45.40
2022-08-28T14:50:51.696Z,46.46
2022-08-28T14:53:18.938Z,46.39
2022-08-28T14:55:49.498Z,44.23
2022-08-28T14:58:18.591Z,44.34
2022-08-28T15:00:51.237Z,44.98
2022-08-28T15:03:22.225Z,44.19
2022-08-28T15:06:07.206Z,45.63
2022-08-28T15:08:39.702Z,44.96
2022-08-28T15:11:08.713Z,44.48
2022-08-28T15:13:38.617Z,46.91
2022-08-28T15:16:10.557Z,44.96
2022-08-28T15:18:51.782Z,45.27
2022-08-28T15:21:29.966Z,45.60
2022-08-28T15:24:18.729Z,44.85
2022-08-28T15:26:53.741Z,46.66
2022-08-28T15:29:21.225Z,46.89
2022-08-28T15:31:50.386Z,46.63
2022-08-28T15:34:31.113Z,48.23
2022-08-28T15:37:03.690Z,47.63
2022-08-28T15:39:56.954Z,47.75
2022-08-28T15:42:36.041Z,47.72
2022-08-28T15:45:09.478Z,47.16
2022-08-28T15:47:37.350Z,47.06
2022-08-28T15:50:09.331Z,46.81
2022-08-28T15:52:43.485Z,46.09
2022-08-28T15:55:13.457Z,46.17
2022-08-28T15:57:40.534Z,45.64
2022-08-28T16:00:11.563Z,45.52
2022-08-28T16:02:44.836Z,46.16
2022-08-28T16:05:14.933Z,48.04
2022-08-28T16:07:42.389Z,47.91
2022-08-28T16:10:10.155Z,48.10
2022-08-28T16:12:47.882Z,46.86
2022-08-28T16:15:34.438Z,47.81
2022-08-28T16:18:18.526Z,48.20
2022-08-28T16:21:11.956Z,46.71
2022-08-28T16:27:13.206Z,45.66
2022-08-28T16:30:44.005Z,46.72
2022-08-28T16:39:45.456Z,49.01
2022-08-28T16:45:53.219Z,51.48
2022-08-28T16:48:27.008Z,51.57
2022-08-28T16:50:57.092Z,50.89
2022-08-28T16:53:27.100Z,52.02
2022-08-28T16:55:59.419Z,53.43
2022-08-28T16:58:33.856Z,55.10
2022-08-28T17:01:02.109Z,54.77
2022-08-28T17:03:32.199Z,55.34
2022-08-28T17:06:06.486Z,57.80
2022-08-28T17:08:39.601Z,58.01
2022-08-28T17:11:10.573Z,60.29
2022-08-28T17:13:47.017Z,61.51
2022-08-28T17:16:57.027Z,63.10
2022-08-28T17:19:38.311Z,61.79
2022-08-28T17:22:27.827Z,63.64
2022-08-28T17:24:58.611Z,63.39
2022-08-28T17:27:32.422Z,62.98
2022-08-28T17:30:07.859Z,65.71
2022-08-28T17:32:37.537Z,64.41
2022-08-28T17:35:12.045Z,64.79
2022-08-28T17:37:45.811Z,64.41
2022-08-28T17:40:19.391Z,64.78
2022-08-28T17:42:54.736Z,66.91
2022-08-28T17:45:24.776Z,68.13
2022-08-28T17:47:57.802Z,71.04
2022-08-28T17:50:24.975Z,69.93
2022-08-28T17:52:56.047Z,71.15
2022-08-28T17:55:23.330Z,70.86
2022-08-28T17:57:59.792Z,71.74
2022-08-28T18:00:35.068Z,72.42
2022-08-28T18:03:08.937Z,73.35
2022-08-28T18:05:41.470Z,75.16
2022-08-28T18:08:11.189Z,75.19
2022-08-28T18:10:40.970Z,75.26
2022-08-28T18:13:10.924Z,75.30
2022-08-28T18:15:43.409Z,77.09
2022-08-28T18:18:17.988Z,78.35
2022-08-28T18:20:46.416Z,79.29
2022-08-28T18:23:13.942Z,80.63
2022-08-28T18:25:50.591Z,82.40
2022-08-28T18:28:24.628Z,83.67
2022-08-28T18:30:57.907Z,84.86
2022-08-28T18:33:27.859Z,85.20
2022-08-28T18:36:02.986Z,84.98
2022-08-28T18:38:35.105Z,86.30
2022-08-28T18:41:07.601Z,87.59
2022-08-28T18:43:40.164Z,87.14
2022-08-28T18:46:13.682Z,87.54
2022-08-28T18:48:41.492Z,88.24
2022-08-28T18:51:12.225Z,87.76
2022-08-28T18:53:42.428Z,87.58
2022-08-28T18:56:12.470Z,87.28
2022-08-28T18:58:45.132Z,86.82
2022-08-28T19:01:14.317Z,87.66
2022-08-28T19:03:41.352Z,87.87
2022-08-28T19:06:16.164Z,88.08
2022-08-28T19:08:52.112Z,88.30
2022-08-28T19:11:25.164Z,88.46
2022-08-28T19:13:55.285Z,88.00
2022-08-28T19:16:22.523Z,88.51
2022-08-28T19:18:52.956Z,88.47
2022-08-28T19:21:20.360Z,88.40
2022-08-28T19:23:56.141Z,88.35
2022-08-28T19:26:25.109Z,89.77
2022-08-28T19:28:55.657Z,90.89
2022-08-28T19:31:27.218Z,90.56
2022-08-28T19:33:54.770Z,93.05
2022-08-28T19:36:27.344Z,93.48
2022-08-28T19:39:00.730Z,93.35
2022-08-28T19:41:30.077Z,92.88
2022-08-28T19:43:57.143Z,92.29
2022-08-28T19:46:29.296Z,93.15
2022-08-28T19:49:21.276Z,94.38
2022-08-28T19:51:57.548Z,95.24
2022-08-28T19:54:33.745Z,94.98
2022-08-28T19:57:01.455Z,94.90
2022-08-28T19:59:29.235Z,95.44
2022-08-28T20:01:59.820Z,96.55
2022-08-28T20:04:39.559Z,96.20
2022-08-28T20:07:06.781Z,97.34
2022-08-28T20:09:43.144Z,97.29
2022-08-28T20:12:10.291Z,98.04
2022-08-28T20:14:42.605Z,100.00
2022-08-28T20:17:15.096Z,100.00
2022-08-28T20:19:42.247Z,100.00
2022-08-28T20:22:12.734Z,100.00
2022-08-28T20:24:55.843Z,99.09
2022-08-28T20:27:25.931Z,97.42
2022-08-28T20:29:55.185Z,95.06
2022-08-28T20:32:24.619Z,94.31
2022-08-28T20:34:54.411Z,94.46
2022-08-28T20:37:24.418Z,93.68
2022-08-28T20:40:04.451Z,94.12
2022-08-28T20:42:38.518Z,94.85
2022-08-28T20:45:12.338Z,94.73
2022-08-28T20:47:55.100Z,94.93
2022-08-28T20:50:24.846Z,95.94
2022-08-28T20:52:51.955Z,95.92
2022-08-28T20:55:25.323Z,96.32
2022-08-28T20:57:55.502Z,96.41
2022-08-28T21:00:27.938Z,96.71
2022-08-28T21:02:54.993Z,97.25
2022-08-28T21:05:28.709Z,97.70
2022-08-28T21:07:58.697Z,97.97
2022-08-28T21:10:28.979Z,98.56
2022-08-28T21:13:03.412Z,97.63
2022-08-28T21:15:39.810Z,97.94
2022-08-28T21:18:16.065Z,98.26
2022-08-28T21:20:46.333Z,99.29
2022-08-28T21:23:16.381Z,99.61
2022-08-28T21:25:43.470Z,100.00
2022-08-28T21:28:13.338Z,100.00
2022-08-28T21:30:44.227Z,100.00
2022-08-28T21:33:14.511Z,100.00
2022-08-28T21:35:42.044Z,100.00
2022-08-28T21:38:18.103Z,100.00
2022-08-28T21:40:48.138Z,100.00
2022-08-28T21:43:15.230Z,100.00
2022-08-28T21:45:47.565Z,100.00
2022-08-28T21:48:20.723Z,100.00
2022-08-28T21:51:03.353Z,100.00
2022-08-28T21:53:37.031Z,100.00
2022-08-28T21:56:10.801Z,100.00
2022-08-28T21:58:38.761Z,100.00
2022-08-28T22:01:17.082Z,100.00
2022-08-28T22:03:57.671Z,100.00
2022-08-28T22:06:27.493Z,100.00
2022-08-28T22:08:58.101Z,100.00
2022-08-28T22:11:27.293Z,100.00
2022-08-28T22:13:58.053Z,100.00
2022-08-28T22:16:26.489Z,100.00
2022-08-28T22:18:59.784Z,100.00
2022-08-28T22:21:46.411Z,100.00
2022-08-28T22:24:13.711Z,100.00
2022-08-28T22:26:44.536Z,100.00
2022-08-28T22:29:20.424Z,100.00
2022-08-28T22:31:50.438Z,100.00
2022-08-28T22:34:28.638Z,100.00
2022-08-28T22:37:02.133Z,100.00
2022-08-28T22:39:31.304Z,100.00
2022-08-28T22:41:58.332Z,100.00
2022-08-28T22:44:31.050Z,100.00
2022-08-28T22:47:07.458Z,100.00
2022-08-28T22:49:40.225Z,100.00
2022-08-28T22:52:10.915Z,100.00
2022-08-28T22:54:47.196Z,100.00
2022-08-28T22:57:22.864Z,100.00
2022-08-28T23:00:01.601Z,100.00
2022-08-28T23:02:34.784Z,100.00
2022-08-28T23:05:09.273Z,100.00
2022-08-28T23:07:41.073Z,100.00
2022-08-28T23:10:15.530Z,100.00
2022-08-28T23:13:01.237Z,100.00
2022-08-28T23:15:28.319Z,100.00
2022-08-28T23:17:55.357Z,100.00
2022-08-28T23:20:25.309Z,100.00
2022-08-28T23:22:58.266Z,100.00
2022-08-28T23:25:30.179Z,100.00
2022-08-28T23:27:57.518Z,100.00
2022-08-28T23:30:27.955Z,100.00
2022-08-28T23:32:58.552Z,100.00
2022-08-28T23:35:37.444Z,100.00
2022-08-28T23:38:07.542Z,100.00
2022-08-28T23:40:37.543Z,100.00
2022-08-28T23:43:07.494Z,100.00
2022-08-28T23:45:41.985Z,100.00
2022-08-28T23:48:12.403Z,100.00
2022-08-28T23:50:44.523Z,100.00
2022-08-28T23:53:11.932Z,100.00
2022-08-28T23:55:42.377Z,100.00
2022-08-28T23:58:10.139Z,100.00
